createdAt,value
2017-11-01T00:00:01.378Z,73.99
2017-11-01T00:01:08.341Z,73.97
2017-11-01T00:02:15.121Z,74.02
2017-11-01T00:03:21.929Z,74.04
2017-11-01T00:04:28.732Z,74.09
2017-11-01T00:05:35.566Z,74.09
2017-11-01T00:06:42.372Z,74.08
2017-11-01T00:07:49.229Z,74.09
2017-11-01T00:08:56.058Z,74.07
2017-11-01T00:10:02.988Z,74.05
2017-11-01T00:11:09.766Z,74.02
2017-11-01T00:12:16.572Z,74.06
2017-11-01T00:13:23.449Z,74.03
2017-11-01T00:14:30.253Z,74.02
2017-11-01T00:15:37.097Z,74.00
2017-11-01T00:16:43.977Z,74.01
2017-11-01T00:17:50.844Z,73.98
2017-11-01T00:18:57.713Z,73.98
2017-11-01T00:20:04.589Z,73.96
2017-11-01T00:21:11.389Z,73.97
2017-11-01T00:22:18.202Z,73.97
2017-11-01T00:23:25.148Z,73.90
2017-11-01T00:24:31.932Z,73.89
2017-11-01T00:25:38.753Z,73.95
2017-11-01T00:26:45.568Z,73.93
2017-11-01T00:27:52.436Z,73.97
2017-11-01T00:28:59.680Z,73.99
2017-11-01T00:30:06.119Z,74.05
2017-11-01T00:31:13.052Z,74.08
2017-11-01T00:32:19.954Z,74.10
2017-11-01T00:33:34.335Z,74.10
2017-11-01T00:34:33.716Z,74.17
2017-11-01T00:35:40.485Z,74.15
2017-11-01T00:36:47.293Z,74.16
2017-11-01T00:37:54.093Z,74.20
2017-11-01T00:39:00.876Z,74.24
2017-11-01T00:40:07.799Z,74.25
2017-11-01T00:41:14.484Z,74.32
2017-11-01T00:42:21.280Z,74.40
2017-11-01T00:43:28.036Z,74.45
2017-11-01T00:44:34.836Z,74.47
2017-11-01T00:45:41.632Z,74.46
2017-11-01T00:46:48.417Z,74.46
2017-11-01T00:47:55.198Z,74.50
2017-11-01T00:49:01.980Z,74.51
2017-11-01T00:50:08.749Z,74.54
2017-11-01T00:51:15.572Z,74.52
2017-11-01T00:52:22.372Z,74.50
2017-11-01T00:53:29.129Z,74.51
2017-11-01T00:54:35.937Z,74.54
2017-11-01T00:55:42.700Z,74.56
2017-11-01T00:56:49.457Z,74.63
2017-11-01T00:57:56.401Z,74.64
2017-11-01T00:59:03.174Z,74.68
2017-11-01T01:00:09.925Z,74.75
2017-11-01T01:01:16.696Z,74.77
2017-11-01T01:02:23.485Z,74.79
2017-11-01T01:03:30.265Z,74.81
2017-11-01T01:04:37.312Z,74.75
2017-11-01T01:05:44.181Z,74.75
2017-11-01T01:06:50.957Z,74.79
2017-11-01T01:07:57.815Z,74.86
2017-11-01T01:09:04.616Z,74.85
2017-11-01T01:10:11.382Z,74.85
2017-11-01T01:11:18.150Z,74.84
2017-11-01T01:12:24.904Z,74.82
2017-11-01T01:13:31.688Z,74.81
2017-11-01T01:14:38.473Z,74.80
2017-11-01T01:15:45.243Z,74.79
2017-11-01T01:16:52.017Z,74.82
2017-11-01T01:17:58.763Z,74.80
2017-11-01T01:19:05.564Z,74.81
2017-11-01T01:20:12.336Z,74.85
2017-11-01T01:21:19.113Z,74.88
2017-11-01T01:22:25.912Z,74.90
2017-11-01T01:23:32.689Z,74.89
2017-11-01T01:24:39.485Z,74.90
2017-11-01T01:25:46.304Z,74.90
2017-11-01T01:26:53.081Z,74.93
2017-11-01T01:27:59.949Z,75.00
2017-11-01T01:29:06.703Z,75.00
2017-11-01T01:30:13.523Z,75.03
2017-11-01T01:31:20.389Z,75.04
2017-11-01T01:32:27.169Z,75.06
2017-11-01T01:33:33.924Z,75.06
2017-11-01T01:34:40.739Z,75.07
2017-11-01T01:35:47.562Z,75.14
2017-11-01T01:36:54.345Z,75.14
2017-11-01T01:38:01.146Z,75.19
2017-11-01T01:39:07.940Z,75.18
2017-11-01T01:40:14.716Z,75.21
2017-11-01T01:41:21.526Z,75.27
2017-11-01T01:42:28.314Z,75.34
2017-11-01T01:43:35.089Z,75.34
2017-11-01T01:44:41.880Z,75.37
2017-11-01T01:45:48.731Z,75.40
2017-11-01T01:46:55.600Z,75.39
2017-11-01T01:48:02.388Z,75.41
2017-11-01T01:49:09.144Z,75.43
2017-11-01T01:50:15.972Z,75.45
2017-11-01T01:51:22.777Z,75.49
2017-11-01T01:52:29.554Z,75.56
2017-11-01T01:53:36.349Z,75.57
2017-11-01T01:54:43.145Z,75.57
2017-11-01T01:55:49.909Z,75.58
2017-11-01T01:56:56.743Z,75.62
2017-11-01T01:58:03.544Z,75.65
2017-11-01T01:59:10.404Z,75.65
2017-11-01T02:00:17.164Z,75.69
2017-11-01T02:01:24.053Z,75.76
2017-11-01T02:02:30.978Z,75.79
2017-11-01T02:03:37.845Z,75.79
2017-11-01T02:04:44.695Z,75.84
2017-11-01T02:05:51.533Z,75.90
2017-11-01T02:06:58.757Z,75.94
2017-11-01T02:08:05.053Z,75.99
2017-11-01T02:09:12.457Z,75.98
2017-11-01T02:10:18.785Z,76.01
2017-11-01T02:11:25.540Z,76.03
2017-11-01T02:12:32.403Z,76.02
2017-11-01T02:13:39.232Z,76.01
2017-11-01T02:14:46.284Z,76.03
2017-11-01T02:15:53.044Z,76.02
2017-11-01T02:16:59.818Z,76.02
2017-11-01T02:18:06.653Z,76.04
2017-11-01T02:19:13.433Z,76.05
2017-11-01T02:20:20.222Z,76.08
2017-11-01T02:21:27.107Z,76.10
2017-11-01T02:22:34.026Z,76.09
2017-11-01T02:23:40.894Z,76.17
2017-11-01T02:24:47.740Z,76.18
2017-11-01T02:25:54.597Z,76.16
2017-11-01T02:27:01.443Z,76.22
2017-11-01T02:28:08.312Z,76.30
2017-11-01T02:29:15.236Z,76.30
2017-11-01T02:30:22.213Z,76.30
2017-11-01T02:31:29.125Z,76.30
2017-11-01T02:32:35.972Z,76.32
2017-11-01T02:33:42.889Z,76.32
2017-11-01T02:34:49.789Z,76.39
2017-11-01T02:35:56.725Z,76.41
2017-11-01T02:37:03.525Z,76.36
2017-11-01T02:38:10.384Z,76.33
2017-11-01T02:39:17.229Z,76.33
2017-11-01T02:40:24.022Z,76.39
2017-11-01T02:41:30.863Z,76.41
2017-11-01T02:42:37.711Z,76.43
2017-11-01T02:43:44.521Z,76.43
2017-11-01T02:44:51.395Z,76.48
2017-11-01T02:45:58.254Z,76.49
2017-11-01T02:47:05.077Z,76.50
2017-11-01T02:48:11.865Z,76.51
2017-11-01T02:49:18.708Z,76.55
2017-11-01T02:50:25.536Z,76.55
2017-11-01T02:51:32.390Z,76.56
2017-11-01T02:52:39.229Z,76.53
2017-11-01T02:53:46.096Z,76.51
2017-11-01T02:54:52.987Z,76.52
2017-11-01T02:55:59.929Z,76.46
2017-11-01T02:57:06.877Z,76.43
2017-11-01T02:58:13.688Z,76.41
2017-11-01T02:59:20.537Z,76.38
2017-11-01T03:00:27.347Z,76.38
2017-11-01T03:01:34.198Z,76.32
2017-11-01T03:02:41.035Z,76.28
2017-11-01T03:03:47.817Z,76.22
2017-11-01T03:04:55.902Z,76.19
2017-11-01T03:06:01.710Z,76.16
2017-11-01T03:07:08.552Z,76.11
2017-11-01T03:08:15.385Z,76.09
2017-11-01T03:09:22.283Z,76.02
2017-11-01T03:10:29.129Z,76.00
2017-11-01T03:11:36.009Z,75.96
2017-11-01T03:12:42.841Z,75.85
2017-11-01T03:13:49.764Z,75.79
2017-11-01T03:14:56.579Z,75.74
2017-11-01T03:16:03.746Z,75.67
2017-11-01T03:17:10.636Z,75.64
2017-11-01T03:18:17.440Z,75.58
2017-11-01T03:19:24.330Z,75.53
2017-11-01T03:20:31.160Z,75.51
2017-11-01T03:21:37.953Z,75.45
2017-11-01T03:22:44.785Z,75.45
2017-11-01T03:23:51.556Z,75.37
2017-11-01T03:24:58.505Z,75.36
2017-11-01T03:26:05.351Z,75.26
2017-11-01T03:27:12.197Z,75.21
2017-11-01T03:28:19.064Z,75.16
2017-11-01T03:29:25.929Z,75.16
2017-11-01T03:30:32.787Z,75.15
2017-11-01T03:31:39.663Z,75.12
2017-11-01T03:32:46.497Z,75.07
2017-11-01T03:33:53.360Z,75.02
2017-11-01T03:35:00.141Z,75.00
2017-11-01T03:36:06.984Z,74.91
2017-11-01T03:37:13.827Z,74.84
2017-11-01T03:38:20.673Z,74.83
2017-11-01T03:39:27.626Z,74.83
2017-11-01T03:40:34.464Z,74.88
2017-11-01T03:41:41.317Z,74.82
2017-11-01T03:42:48.174Z,74.83
2017-11-01T03:43:55.333Z,74.80
2017-11-01T03:45:02.180Z,74.80
2017-11-01T03:46:09.062Z,74.74
2017-11-01T03:47:15.927Z,74.75
2017-11-01T03:48:22.756Z,74.75
2017-11-01T03:49:29.587Z,74.73
2017-11-01T03:50:36.425Z,74.72
2017-11-01T03:51:43.262Z,74.63
2017-11-01T03:52:50.080Z,74.65
2017-11-01T03:53:56.860Z,74.64
2017-11-01T03:55:03.694Z,74.67
2017-11-01T03:56:10.495Z,74.68
2017-11-01T03:57:17.368Z,74.68
2017-11-01T03:58:24.222Z,74.67
2017-11-01T03:59:31.088Z,74.69
2017-11-01T04:00:37.912Z,74.71
2017-11-01T04:01:44.840Z,74.74
2017-11-01T04:02:51.681Z,74.77
2017-11-01T04:03:58.409Z,74.75
2017-11-01T04:05:05.339Z,74.77
2017-11-01T04:06:12.163Z,74.80
2017-11-01T04:07:19.045Z,74.85
2017-11-01T04:08:25.904Z,74.85
2017-11-01T04:09:32.692Z,74.94
2017-11-01T04:10:39.763Z,74.97
2017-11-01T04:11:46.834Z,75.00
2017-11-01T04:12:53.653Z,75.02
2017-11-01T04:14:00.456Z,75.09
2017-11-01T04:15:07.284Z,75.11
2017-11-01T04:16:14.126Z,75.15
2017-11-01T04:17:21.370Z,75.12
2017-11-01T04:18:28.173Z,75.14
2017-11-01T04:26:47.233Z,75.10
2017-11-01T04:27:54.057Z,74.96
2017-11-01T04:29:00.904Z,75.01
2017-11-01T04:30:07.773Z,75.01
2017-11-01T04:31:14.604Z,75.03
2017-11-01T04:32:21.365Z,75.00
2017-11-01T04:33:28.219Z,74.98
2017-11-01T04:34:35.074Z,74.94
2017-11-01T04:35:41.924Z,74.95
2017-11-01T04:36:48.778Z,74.94
2017-11-01T04:37:55.904Z,74.95
2017-11-01T04:39:02.730Z,74.94
2017-11-01T04:40:09.481Z,74.95
2017-11-01T04:41:16.273Z,74.95
2017-11-01T04:42:23.063Z,74.97
2017-11-01T04:43:29.905Z,74.94
2017-11-01T04:44:36.877Z,74.94
2017-11-01T04:45:44.194Z,74.90
2017-11-01T04:46:51.030Z,74.88
2017-11-01T04:47:57.892Z,74.86
2017-11-01T04:49:04.708Z,74.86
2017-11-01T04:50:11.545Z,74.87
2017-11-01T04:51:18.445Z,74.88
2017-11-01T04:52:25.313Z,74.91
2017-11-01T04:53:32.220Z,74.88
2017-11-01T04:54:38.997Z,74.96
2017-11-01T04:55:45.936Z,75.00
2017-11-01T04:56:52.781Z,75.05
2017-11-01T04:57:59.825Z,75.04
2017-11-01T04:59:06.684Z,75.04
2017-11-01T05:00:13.521Z,75.06
2017-11-01T05:01:20.472Z,75.07
2017-11-01T05:02:27.258Z,75.03
2017-11-01T05:03:34.225Z,75.03
2017-11-01T05:04:41.064Z,75.02
2017-11-01T05:05:49.738Z,75.02
2017-11-01T05:06:55.085Z,74.99
2017-11-01T05:08:01.848Z,74.96
2017-11-01T05:09:08.710Z,74.93
2017-11-01T05:10:15.452Z,74.89
2017-11-01T05:11:22.557Z,74.86
2017-11-01T05:19:40.426Z,74.89
2017-11-01T05:20:47.346Z,74.57
2017-11-01T05:21:54.213Z,74.46
2017-11-01T05:23:01.024Z,74.46
2017-11-01T05:24:07.815Z,74.39
2017-11-01T05:25:14.705Z,74.38
2017-11-01T05:26:21.536Z,74.35
2017-11-01T05:27:28.417Z,74.31
2017-11-01T05:28:35.333Z,74.30
2017-11-01T05:29:42.166Z,74.23
2017-11-01T05:30:49.059Z,74.17
2017-11-01T05:31:55.862Z,74.06
2017-11-01T05:33:02.637Z,74.04
2017-11-01T05:34:09.438Z,73.99
2017-11-01T05:35:16.232Z,73.92
2017-11-01T05:36:23.040Z,73.95
2017-11-01T05:37:30.036Z,73.96
2017-11-01T05:38:36.852Z,73.97
2017-11-01T05:39:43.905Z,73.96
2017-11-01T05:40:50.793Z,73.94
2017-11-01T05:41:57.697Z,73.90
2017-11-01T05:43:04.528Z,73.87
2017-11-01T05:44:11.328Z,73.84
2017-11-01T05:45:18.394Z,73.80
2017-11-01T05:46:25.229Z,73.76
2017-11-01T05:47:32.032Z,73.70
2017-11-01T05:48:38.860Z,73.63
2017-11-01T05:49:45.837Z,73.60
2017-11-01T05:50:52.684Z,73.58
2017-11-01T05:51:59.505Z,73.57
2017-11-01T05:53:07.069Z,73.54
2017-11-01T05:54:13.359Z,73.53
2017-11-01T05:55:20.161Z,73.42
2017-11-01T05:56:26.999Z,73.36
2017-11-01T05:57:33.702Z,73.27
2017-11-01T05:58:40.500Z,73.29
2017-11-01T05:59:47.372Z,73.27
2017-11-01T06:00:54.142Z,73.28
2017-11-01T06:02:00.980Z,73.20
2017-11-01T06:03:07.841Z,73.19
2017-11-01T06:04:14.970Z,73.15
2017-11-01T06:05:21.375Z,73.07
2017-11-01T06:06:28.304Z,73.02
2017-11-01T06:07:35.344Z,72.97
2017-11-01T06:08:42.081Z,72.95
2017-11-01T06:09:49.051Z,72.91
2017-11-01T06:10:55.868Z,72.88
2017-11-01T06:12:02.738Z,72.82
2017-11-01T06:13:09.576Z,72.77
2017-11-01T06:14:16.466Z,72.74
2017-11-01T06:15:23.391Z,72.68
2017-11-01T06:16:30.237Z,72.64
2017-11-01T06:17:37.041Z,72.60
2017-11-01T06:18:43.986Z,72.56
2017-11-01T06:19:50.901Z,72.55
2017-11-01T06:20:57.742Z,72.57
2017-11-01T06:22:04.626Z,72.57
2017-11-01T06:23:11.470Z,72.53
2017-11-01T06:24:18.299Z,72.51
2017-11-01T06:25:25.216Z,72.50
2017-11-01T06:26:32.078Z,72.41
2017-11-01T06:27:38.977Z,72.45
2017-11-01T06:28:45.836Z,72.45
2017-11-01T06:29:52.795Z,72.44
2017-11-01T06:30:59.653Z,72.38
2017-11-01T06:32:06.488Z,72.36
2017-11-01T06:33:13.365Z,72.35
2017-11-01T06:34:20.208Z,72.34
2017-11-01T06:35:27.065Z,72.35
2017-11-01T06:36:33.969Z,72.34
2017-11-01T06:37:40.768Z,72.33
2017-11-01T06:38:47.497Z,72.31
2017-11-01T06:39:54.328Z,72.29
2017-11-01T06:41:01.133Z,72.31
2017-11-01T06:42:07.924Z,72.29
2017-11-01T06:43:14.785Z,72.24
2017-11-01T06:44:21.629Z,72.24
2017-11-01T06:45:28.516Z,72.21
2017-11-01T06:46:35.322Z,72.24
2017-11-01T06:47:42.240Z,72.22
2017-11-01T06:48:49.036Z,72.17
2017-11-01T06:49:55.841Z,72.20
2017-11-01T06:51:02.689Z,72.20
2017-11-01T06:52:09.585Z,72.17
2017-11-01T06:53:16.465Z,72.16
2017-11-01T06:54:23.293Z,72.25
2017-11-01T06:55:30.146Z,72.18
2017-11-01T06:56:36.937Z,72.19
2017-11-01T06:57:43.683Z,72.20
2017-11-01T06:58:50.520Z,72.20
2017-11-01T06:59:57.304Z,72.23
2017-11-01T07:01:04.055Z,72.23
2017-11-01T07:02:11.032Z,72.23
2017-11-01T07:03:17.792Z,72.24
2017-11-01T07:04:24.522Z,72.27
2017-11-01T07:05:31.222Z,72.29
2017-11-01T07:06:38.001Z,72.35
2017-11-01T07:07:44.760Z,72.36
2017-11-01T07:08:51.601Z,72.38
2017-11-01T07:09:58.391Z,72.46
2017-11-01T07:11:05.156Z,72.50
2017-11-01T07:12:12.025Z,72.56
2017-11-01T07:13:18.844Z,72.58
2017-11-01T07:14:25.641Z,72.63
2017-11-01T07:15:32.794Z,72.66
2017-11-01T07:16:39.215Z,72.68
2017-11-01T07:17:46.086Z,72.73
2017-11-01T07:18:53.898Z,72.77
2017-11-01T07:19:59.712Z,72.81
2017-11-01T07:21:06.483Z,72.79
2017-11-01T07:22:13.337Z,72.85
2017-11-01T07:23:20.152Z,72.86
2017-11-01T07:24:27.076Z,72.91
2017-11-01T07:25:33.955Z,72.96
2017-11-01T07:26:40.780Z,73.03
2017-11-01T07:27:47.621Z,73.08
2017-11-01T07:28:54.379Z,73.17
2017-11-01T07:30:01.199Z,73.23
2017-11-01T07:31:08.053Z,73.24
2017-11-01T07:32:15.085Z,73.28
2017-11-01T07:33:21.865Z,73.38
2017-11-01T07:34:28.740Z,73.39
2017-11-01T07:35:35.553Z,73.48
2017-11-01T07:36:42.304Z,73.53
2017-11-01T07:37:49.221Z,73.58
2017-11-01T07:38:55.985Z,73.66
2017-11-01T07:40:02.836Z,73.72
2017-11-01T07:41:09.600Z,73.81
2017-11-01T07:42:16.342Z,73.92
2017-11-01T07:43:23.086Z,73.95
2017-11-01T07:44:29.951Z,74.03
2017-11-01T07:45:36.745Z,74.13
2017-11-01T07:46:43.736Z,74.23
2017-11-01T07:47:50.474Z,74.31
2017-11-01T07:48:57.249Z,74.40
2017-11-01T07:50:03.979Z,74.49
2017-11-01T07:51:10.760Z,74.54
2017-11-01T07:52:17.620Z,74.62
2017-11-01T07:53:24.357Z,74.75
2017-11-01T07:54:31.142Z,74.86
2017-11-01T07:55:37.960Z,74.90
2017-11-01T07:56:44.701Z,75.00
2017-11-01T07:57:51.541Z,75.04
2017-11-01T07:58:58.306Z,75.13
2017-11-01T08:00:05.073Z,75.24
2017-11-01T08:01:11.874Z,75.35
2017-11-01T08:02:18.633Z,75.43
2017-11-01T08:03:25.359Z,75.51
2017-11-01T08:04:32.128Z,75.59
2017-11-01T08:05:38.840Z,75.69
2017-11-01T08:06:45.662Z,75.78
2017-11-01T08:07:52.422Z,75.88
2017-11-01T08:08:59.153Z,76.00
2017-11-01T08:10:05.893Z,76.07
2017-11-01T08:11:12.712Z,76.21
2017-11-01T08:12:19.450Z,76.30
2017-11-01T08:13:26.223Z,76.42
2017-11-01T08:14:32.948Z,76.56
2017-11-01T08:15:39.730Z,76.65
2017-11-01T08:16:46.501Z,76.77
2017-11-01T08:17:53.226Z,76.86
2017-11-01T08:18:59.974Z,76.96
2017-11-01T08:20:06.849Z,77.08
2017-11-01T08:21:13.579Z,77.12
2017-11-01T08:22:20.358Z,77.22
2017-11-01T08:23:27.264Z,77.30
2017-11-01T08:24:34.050Z,77.37
2017-11-01T08:25:40.825Z,77.42
2017-11-01T08:26:47.609Z,77.53
2017-11-01T08:27:54.360Z,77.68
2017-11-01T08:29:01.105Z,77.73
2017-11-01T08:30:07.848Z,77.94
2017-11-01T08:31:14.612Z,78.04
2017-11-01T08:32:21.413Z,78.10
2017-11-01T08:33:28.157Z,78.15
2017-11-01T08:34:34.897Z,78.26
2017-11-01T08:35:41.653Z,78.38
2017-11-01T08:36:48.471Z,78.44
2017-11-01T08:37:55.470Z,78.61
2017-11-01T08:39:02.264Z,78.76
2017-11-01T08:40:09.220Z,79.02
2017-11-01T08:41:16.270Z,79.11
2017-11-01T08:42:22.796Z,79.15
2017-11-01T08:43:29.653Z,79.36
2017-11-01T08:44:36.361Z,79.55
2017-11-01T08:45:43.097Z,79.74
2017-11-01T08:46:49.800Z,79.83
2017-11-01T08:47:56.636Z,79.87
2017-11-01T08:49:03.413Z,79.95
2017-11-01T08:50:10.124Z,79.97
2017-11-01T08:51:16.874Z,80.17
2017-11-01T08:52:23.618Z,80.25
2017-11-01T08:53:30.328Z,80.23
2017-11-01T08:54:37.065Z,80.25
2017-11-01T08:55:43.780Z,80.34
2017-11-01T08:56:50.494Z,80.43
2017-11-01T08:57:57.272Z,80.57
2017-11-01T08:59:04.001Z,80.82
2017-11-01T09:00:10.717Z,81.00
2017-11-01T09:01:17.642Z,81.08
2017-11-01T09:02:24.367Z,81.11
2017-11-01T09:03:31.430Z,81.21
2017-11-01T09:04:38.229Z,81.29
2017-11-01T09:05:44.910Z,81.35
2017-11-01T09:06:51.629Z,81.47
2017-11-01T09:07:58.445Z,81.59
2017-11-01T09:09:05.158Z,81.70
2017-11-01T09:10:11.954Z,81.84
2017-11-01T09:11:18.797Z,81.81
2017-11-01T09:12:25.518Z,81.81
2017-11-01T09:13:32.335Z,81.92
2017-11-01T09:14:39.442Z,82.01
2017-11-01T09:15:46.310Z,82.08
2017-11-01T09:16:53.042Z,82.19
2017-11-01T09:17:59.821Z,82.37
2017-11-01T09:19:06.555Z,82.39
2017-11-01T09:20:13.356Z,82.56
2017-11-01T09:21:20.162Z,82.67
2017-11-01T09:22:26.969Z,82.61
2017-11-01T09:23:33.765Z,82.61
2017-11-01T09:24:40.501Z,82.71
2017-11-01T09:25:47.303Z,82.68
2017-11-01T09:26:54.193Z,82.77
2017-11-01T09:28:00.881Z,82.86
2017-11-01T09:29:07.698Z,82.93
2017-11-01T09:30:14.446Z,82.96
2017-11-01T09:31:21.261Z,83.06
2017-11-01T09:32:28.061Z,83.17
2017-11-01T09:33:34.798Z,83.22
2017-11-01T09:34:41.568Z,83.17
2017-11-01T09:35:48.293Z,83.18
2017-11-01T09:36:55.124Z,83.16
2017-11-01T09:38:02.017Z,83.26
2017-11-01T09:39:08.830Z,83.42
2017-11-01T09:40:15.554Z,83.39
2017-11-01T09:41:22.337Z,83.43
2017-11-01T09:42:29.079Z,83.44
2017-11-01T09:43:35.846Z,83.39
2017-11-01T09:44:42.636Z,83.31
2017-11-01T09:45:49.381Z,83.21
2017-11-01T09:46:56.105Z,83.21
2017-11-01T09:48:02.834Z,83.25
2017-11-01T09:49:09.586Z,83.14
2017-11-01T09:50:16.390Z,83.23
2017-11-01T09:51:23.236Z,83.18
2017-11-01T09:52:30.237Z,83.25
2017-11-01T09:53:37.002Z,83.29
2017-11-01T09:54:43.758Z,83.28
2017-11-01T09:55:50.480Z,83.37
2017-11-01T09:56:57.359Z,83.31
2017-11-01T09:58:04.118Z,83.41
2017-11-01T09:59:10.850Z,83.47
2017-11-01T10:00:17.698Z,83.54
2017-11-01T10:01:24.574Z,83.56
2017-11-01T10:02:31.446Z,83.42
2017-11-01T10:03:38.234Z,83.47
2017-11-01T10:04:45.003Z,83.45
2017-11-01T10:05:51.840Z,83.50
2017-11-01T10:06:58.685Z,83.61
2017-11-01T10:08:05.421Z,83.62
2017-11-01T10:09:12.163Z,83.62
2017-11-01T10:10:18.962Z,83.55
2017-11-01T10:11:25.701Z,83.45
2017-11-01T10:12:32.531Z,83.44
2017-11-01T10:13:39.283Z,83.44
2017-11-01T10:14:46.049Z,83.37
2017-11-01T10:15:52.793Z,83.07
2017-11-01T10:16:59.885Z,83.05
2017-11-01T10:18:06.694Z,82.92
2017-11-01T10:19:13.452Z,82.83
2017-11-01T10:20:20.194Z,82.81
2017-11-01T10:21:27.106Z,82.68
2017-11-01T10:22:33.889Z,82.56
2017-11-01T10:23:40.660Z,82.42
2017-11-01T10:24:47.497Z,82.25
2017-11-01T10:25:54.237Z,82.29
2017-11-01T10:27:01.037Z,82.17
2017-11-01T10:28:08.125Z,82.20
2017-11-01T10:29:14.882Z,82.26
2017-11-01T10:30:21.709Z,81.94
2017-11-01T10:31:28.555Z,81.90
2017-11-01T10:32:35.437Z,81.89
2017-11-01T10:33:42.220Z,81.89
2017-11-01T10:34:49.158Z,81.85
2017-11-01T10:35:55.935Z,81.82
2017-11-01T10:37:02.752Z,81.71
2017-11-01T10:38:09.590Z,81.58
2017-11-01T10:39:16.432Z,81.39
2017-11-01T10:40:23.178Z,81.35
2017-11-01T10:41:30.141Z,81.54
2017-11-01T10:42:36.969Z,81.48
2017-11-01T10:43:43.737Z,81.13
2017-11-01T10:44:50.637Z,80.98
2017-11-01T10:45:57.484Z,80.86
2017-11-01T10:47:04.293Z,80.56
2017-11-01T10:48:11.130Z,80.37
2017-11-01T10:49:17.845Z,80.33
2017-11-01T10:50:24.582Z,80.08
2017-11-01T10:51:31.426Z,79.99
2017-11-01T10:52:38.209Z,80.19
2017-11-01T10:53:44.946Z,80.28
2017-11-01T10:54:51.691Z,80.33
2017-11-01T10:55:58.412Z,80.23
2017-11-01T10:57:05.179Z,80.07
2017-11-01T10:58:11.936Z,79.96
2017-11-01T10:59:18.637Z,79.60
2017-11-01T11:00:25.369Z,79.58
2017-11-01T11:01:32.087Z,79.45
2017-11-01T11:02:38.958Z,79.27
2017-11-01T11:03:45.753Z,79.04
2017-11-01T11:04:52.474Z,78.51
2017-11-01T11:05:59.259Z,78.54
2017-11-01T11:07:06.029Z,78.45
2017-11-01T11:08:12.849Z,78.30
2017-11-01T11:09:19.644Z,78.06
2017-11-01T11:10:26.389Z,77.99
2017-11-01T11:11:33.112Z,77.68
2017-11-01T11:12:40.226Z,77.48
2017-11-01T11:13:46.979Z,77.33
2017-11-01T11:14:54.091Z,77.10
2017-11-01T11:16:01.614Z,76.99
2017-11-01T11:17:07.570Z,76.79
2017-11-01T11:18:14.313Z,76.86
2017-11-01T11:19:21.118Z,76.80
2017-11-01T11:20:27.974Z,76.45
2017-11-01T11:21:34.714Z,76.33
2017-11-01T11:22:41.449Z,76.14
2017-11-01T11:23:48.221Z,75.75
2017-11-01T11:24:55.013Z,75.62
2017-11-01T11:26:01.777Z,75.34
2017-11-01T11:27:08.536Z,75.33
2017-11-01T11:28:15.299Z,75.10
2017-11-01T11:29:27.217Z,75.10
2017-11-01T11:30:28.951Z,74.89
2017-11-01T11:31:35.925Z,74.63
2017-11-01T11:32:42.762Z,74.52
2017-11-01T11:33:49.573Z,74.28
2017-11-01T11:34:56.277Z,74.00
2017-11-01T11:36:03.053Z,73.87
2017-11-01T11:37:09.971Z,73.48
2017-11-01T11:38:17.416Z,73.58
2017-11-01T11:39:23.873Z,73.17
2017-11-01T11:40:30.716Z,73.16
2017-11-01T11:41:37.598Z,72.90
2017-11-01T11:42:44.358Z,72.84
2017-11-01T11:43:51.121Z,72.56
2017-11-01T11:44:57.917Z,72.16
2017-11-01T11:46:04.688Z,71.84
2017-11-01T11:47:11.438Z,71.61
2017-11-01T11:48:18.161Z,71.22
2017-11-01T11:49:24.952Z,71.06
2017-11-01T11:50:31.719Z,71.10
2017-11-01T11:51:38.522Z,70.54
2017-11-01T11:52:45.319Z,70.81
2017-11-01T11:53:52.067Z,70.81
2017-11-01T11:54:58.848Z,70.50
2017-11-01T11:56:05.734Z,70.12
2017-11-01T11:57:12.536Z,69.61
2017-11-01T11:58:19.337Z,69.79
2017-11-01T11:59:26.141Z,69.93
2017-11-01T12:00:32.900Z,69.90
2017-11-01T12:01:39.653Z,69.61
2017-11-01T12:02:46.380Z,69.77
2017-11-01T12:03:53.118Z,69.69
2017-11-01T12:04:59.858Z,69.65
2017-11-01T12:06:06.618Z,69.64
2017-11-01T12:07:13.370Z,69.25
2017-11-01T12:08:20.203Z,69.24
2017-11-01T12:09:27.126Z,68.75
2017-11-01T12:10:34.090Z,68.43
2017-11-01T12:11:41.051Z,68.31
2017-11-01T12:12:48.138Z,68.17
2017-11-01T12:13:54.941Z,67.96
2017-11-01T12:15:01.714Z,67.60
2017-11-01T12:16:09.645Z,67.21
2017-11-01T12:17:15.517Z,67.38
2017-11-01T12:18:22.429Z,67.40
2017-11-01T12:19:29.273Z,67.24
2017-11-01T12:20:36.105Z,67.09
2017-11-01T12:21:42.873Z,66.77
2017-11-01T12:22:49.673Z,66.60
2017-11-01T12:23:56.704Z,66.46
2017-11-01T12:25:03.480Z,66.63
2017-11-01T12:26:10.307Z,66.29
2017-11-01T12:27:17.149Z,66.37
2017-11-01T12:28:27.725Z,66.22
2017-11-01T12:29:30.957Z,65.71
2017-11-01T12:30:37.769Z,65.58
2017-11-01T12:31:44.557Z,65.29
2017-11-01T12:32:51.289Z,65.25
2017-11-01T12:33:58.046Z,64.70
2017-11-01T12:35:04.801Z,64.70
2017-11-01T12:36:11.621Z,64.76
2017-11-01T12:37:18.577Z,64.39
2017-11-01T12:38:25.377Z,64.58
2017-11-01T12:39:32.174Z,64.32
2017-11-01T12:40:38.961Z,64.28
2017-11-01T12:41:45.705Z,64.15
2017-11-01T12:42:52.480Z,63.70
2017-11-01T12:43:59.216Z,63.89
2017-11-01T12:45:05.938Z,63.61
2017-11-01T12:46:12.733Z,63.78
2017-11-01T12:47:19.600Z,63.26
2017-11-01T12:48:26.388Z,63.33
2017-11-01T12:49:33.288Z,63.10
2017-11-01T12:50:40.098Z,63.06
2017-11-01T12:51:47.034Z,63.03
2017-11-01T12:52:53.853Z,62.71
2017-11-01T12:54:00.457Z,62.74
2017-11-01T12:55:07.189Z,62.40
2017-11-01T12:56:13.976Z,62.02
2017-11-01T12:57:20.693Z,61.79
2017-11-01T12:58:27.478Z,61.46
2017-11-01T12:59:34.250Z,61.02
2017-11-01T13:00:41.032Z,61.26
2017-11-01T13:01:47.929Z,61.31
2017-11-01T13:02:54.694Z,61.23
2017-11-01T13:04:01.446Z,60.92
2017-11-01T13:05:08.325Z,60.83
2017-11-01T13:06:15.146Z,60.59
2017-11-01T13:07:22.121Z,60.34
2017-11-01T13:08:28.980Z,60.24
2017-11-01T13:09:35.877Z,60.13
2017-11-01T13:10:42.685Z,60.04
2017-11-01T13:11:49.595Z,60.06
2017-11-01T13:12:56.510Z,59.71
2017-11-01T13:14:03.304Z,59.74
2017-11-01T13:15:10.060Z,59.73
2017-11-01T13:16:17.233Z,59.49
2017-11-01T13:17:24.020Z,59.30
2017-11-01T13:18:30.920Z,59.05
2017-11-01T13:19:37.763Z,58.61
2017-11-01T13:20:44.702Z,58.23
2017-11-01T13:21:51.435Z,58.08
2017-11-01T13:22:58.177Z,58.08
2017-11-01T13:24:04.947Z,58.14
2017-11-01T13:25:11.732Z,57.95
2017-11-01T13:26:18.482Z,57.69
2017-11-01T13:27:25.318Z,57.78
2017-11-01T13:28:32.157Z,57.58
2017-11-01T13:29:38.905Z,57.44
2017-11-01T13:30:45.697Z,57.71
2017-11-01T13:31:52.550Z,57.41
2017-11-01T13:32:59.331Z,57.32
2017-11-01T13:34:06.108Z,57.30
2017-11-01T13:35:12.876Z,57.30
2017-11-01T13:36:19.629Z,57.24
2017-11-01T13:37:26.541Z,57.15
2017-11-01T13:38:33.340Z,57.15
2017-11-01T13:39:40.231Z,57.10
2017-11-01T13:40:47.357Z,57.22
2017-11-01T13:41:54.181Z,57.09
2017-11-01T13:43:00.976Z,57.04
2017-11-01T13:44:07.915Z,56.95
2017-11-01T13:45:14.871Z,56.85
2017-11-01T13:46:21.744Z,56.92
2017-11-01T13:47:28.478Z,56.74
2017-11-01T13:48:35.267Z,57.07
2017-11-01T13:49:42.018Z,56.79
2017-11-01T13:50:48.769Z,56.65
2017-11-01T13:51:55.497Z,56.76
2017-11-01T13:53:02.251Z,56.82
2017-11-01T13:54:09.054Z,56.83
2017-11-01T13:55:15.999Z,56.54
2017-11-01T13:56:22.752Z,56.52
2017-11-01T13:57:29.472Z,56.64
2017-11-01T13:58:36.225Z,56.76
2017-11-01T13:59:43.018Z,56.58
2017-11-01T14:00:49.750Z,56.84
2017-11-01T14:01:56.510Z,56.55
2017-11-01T14:03:03.229Z,56.68
2017-11-01T14:04:10.023Z,56.53
2017-11-01T14:05:16.836Z,56.19
2017-11-01T14:06:23.586Z,55.96
2017-11-01T14:07:30.385Z,56.20
2017-11-01T14:08:37.121Z,56.58
2017-11-01T14:09:43.877Z,56.92
2017-11-01T14:10:50.613Z,56.94
2017-11-01T14:11:57.445Z,56.79
2017-11-01T14:13:04.169Z,57.28
2017-11-01T14:14:11.049Z,57.39
2017-11-01T14:15:17.881Z,57.56
2017-11-01T14:16:24.881Z,57.85
2017-11-01T14:17:31.642Z,58.21
2017-11-01T14:18:38.625Z,58.15
2017-11-01T14:19:45.554Z,58.23
2017-11-01T14:20:52.321Z,58.57
2017-11-01T14:21:59.069Z,58.83
2017-11-01T14:23:05.845Z,59.09
2017-11-01T14:24:12.588Z,59.38
2017-11-01T14:25:19.345Z,59.56
2017-11-01T14:26:26.161Z,59.77
2017-11-01T14:27:32.909Z,60.04
2017-11-01T14:28:39.657Z,60.21
2017-11-01T14:29:46.438Z,60.29
2017-11-01T14:30:53.301Z,60.46
2017-11-01T14:32:00.044Z,60.71
2017-11-01T14:33:06.798Z,60.79
2017-11-01T14:34:13.549Z,61.06